createdAt,value
2022-09-23T00:03:07.097Z,100.00
2022-09-23T00:08:11.682Z,100.00
2022-09-23T00:13:13.290Z,100.00
2022-09-23T00:18:15.001Z,100.00
2022-09-23T00:23:16.623Z,100.00
2022-09-23T00:28:18.228Z,100.00
2022-09-23T00:33:19.902Z,100.00
2022-09-23T00:38:21.503Z,100.00
2022-09-23T00:43:47.027Z,100.00
2022-09-23T00:48:53.286Z,100.00
2022-09-23T00:53:55.678Z,100.00
2022-09-23T00:58:57.393Z,100.00
2022-09-23T01:03:59.253Z,100.00
2022-09-23T01:09:00.865Z,100.00
2022-09-23T01:14:18.034Z,100.00
2022-09-23T01:19:50.789Z,100.00
2022-09-23T01:25:21.295Z,100.00
2022-09-23T01:31:05.051Z,100.00
2022-09-23T01:36:35.472Z,100.00
2022-09-23T01:41:58.600Z,100.00
2022-09-23T01:47:11.068Z,100.00
2022-09-23T01:52:25.852Z,100.00
2022-09-23T01:57:33.471Z,100.00
2022-09-23T02:02:49.373Z,100.00
2022-09-23T02:08:23.701Z,100.00
2022-09-23T02:13:40.178Z,100.00
2022-09-23T02:18:55.983Z,100.00
2022-09-23T02:24:09.134Z,100.00
2022-09-23T02:29:37.700Z,100.00
2022-09-23T02:34:51.487Z,100.00
2022-09-23T02:40:09.766Z,100.00
2022-09-23T02:45:11.564Z,100.00
2022-09-23T02:50:13.889Z,100.00
2022-09-23T02:55:22.274Z,100.00
2022-09-23T03:00:24.059Z,100.00
2022-09-23T03:05:30.356Z,100.00
2022-09-23T03:10:50.430Z,100.00
2022-09-23T03:16:07.517Z,100.00
2022-09-23T03:21:16.228Z,100.00
2022-09-23T03:26:27.543Z,100.00
2022-09-23T03:31:30.197Z,100.00
2022-09-23T03:36:51.668Z,100.00
2022-09-23T03:41:57.248Z,100.00
2022-09-23T03:47:02.426Z,100.00
2022-09-23T03:52:04.055Z,100.00
2022-09-23T03:57:05.725Z,100.00
2022-09-23T04:02:07.914Z,100.00
2022-09-23T04:07:10.924Z,100.00
2022-09-23T04:12:15.393Z,100.00
2022-09-23T04:17:17.031Z,100.00
2022-09-23T04:22:18.699Z,100.00
2022-09-23T04:27:20.393Z,100.00
2022-09-23T04:32:21.994Z,100.00
2022-09-23T04:37:23.665Z,100.00
2022-09-23T04:42:28.855Z,100.00
2022-09-23T04:47:32.412Z,100.00
2022-09-23T04:52:34.033Z,100.00
2022-09-23T04:57:35.722Z,100.00
2022-09-23T05:02:43.453Z,100.00
2022-09-23T05:07:45.053Z,100.00
2022-09-23T05:12:46.687Z,100.00
2022-09-23T05:17:48.301Z,100.00
2022-09-23T05:22:49.921Z,100.00
2022-09-23T05:27:51.960Z,100.00
2022-09-23T05:32:54.202Z,100.00
2022-09-23T05:37:55.826Z,100.00
2022-09-23T05:42:57.869Z,100.00
2022-09-23T05:47:59.493Z,100.00
2022-09-23T05:53:01.133Z,100.00
2022-09-23T05:58:02.741Z,100.00
2022-09-23T06:03:04.576Z,100.00
2022-09-23T06:08:07.387Z,100.00
2022-09-23T06:13:09.872Z,100.00
2022-09-23T06:18:12.540Z,100.00
2022-09-23T06:23:14.144Z,100.00
2022-09-23T06:28:15.728Z,100.00
2022-09-23T06:33:23.242Z,100.00
2022-09-23T06:38:34.293Z,100.00
2022-09-23T06:43:35.940Z,100.00
2022-09-23T06:48:37.553Z,100.00
2022-09-23T06:53:39.485Z,100.00
2022-09-23T06:58:41.457Z,100.00
2022-09-23T07:03:45.235Z,100.00
2022-09-23T07:08:48.242Z,100.00
2022-09-23T07:13:49.900Z,100.00
2022-09-23T07:18:53.524Z,100.00
2022-09-23T07:23:58.174Z,60.81
2022-09-23T07:29:07.528Z,46.31
2022-09-23T07:34:11.461Z,40.78
2022-09-23T07:39:13.722Z,37.94
2022-09-23T07:44:16.337Z,36.19
2022-09-23T07:49:17.946Z,34.28
2022-09-23T07:54:20.060Z,33.73
2022-09-23T07:59:21.906Z,35.87
2022-09-23T08:04:26.815Z,34.82
2022-09-23T08:09:34.818Z,33.47
2022-09-23T08:14:36.644Z,33.42
2022-09-23T08:19:39.188Z,35.99
2022-09-23T08:24:41.098Z,43.35
2022-09-23T08:29:42.717Z,46.61
2022-09-23T08:34:46.734Z,46.46
2022-09-23T08:39:48.333Z,40.60
2022-09-23T08:44:54.993Z,37.85
2022-09-23T08:50:07.370Z,35.14
2022-09-23T08:55:13.776Z,35.48
2022-09-23T09:00:20.878Z,35.05
2022-09-23T09:05:28.906Z,36.81
2022-09-23T09:10:47.036Z,37.59
2022-09-23T09:16:06.439Z,43.13
2022-09-23T09:21:12.648Z,42.14
2022-09-23T09:26:21.853Z,49.33
2022-09-23T09:31:30.988Z,48.14
2022-09-23T09:36:44.408Z,53.33
2022-09-23T09:41:50.041Z,56.37
2022-09-23T09:47:28.834Z,55.01
2022-09-23T09:52:31.786Z,52.23
2022-09-23T09:57:39.780Z,56.35
2022-09-23T10:02:41.995Z,56.89
2022-09-23T10:07:43.900Z,57.34
2022-09-23T10:12:47.299Z,57.09
2022-09-23T10:17:51.326Z,57.92
2022-09-23T10:22:53.202Z,57.48
2022-09-23T10:27:54.856Z,53.23
2022-09-23T10:32:57.072Z,54.90
2022-09-23T10:38:01.580Z,58.15
2022-09-23T10:43:37.904Z,53.54
2022-09-23T10:49:10.071Z,53.27
2022-09-23T10:54:36.370Z,55.16
2022-09-23T11:00:06.017Z,59.13
2022-09-23T11:06:01.204Z,57.72
2022-09-23T11:11:31.016Z,58.14
2022-09-23T11:16:46.568Z,56.63
2022-09-23T11:22:01.298Z,53.73
2022-09-23T11:27:11.646Z,56.06
2022-09-23T11:32:27.636Z,53.91
2022-09-23T11:37:46.457Z,52.01
2022-09-23T11:42:58.222Z,53.11
2022-09-23T11:48:09.814Z,55.83
2022-09-23T11:53:30.014Z,55.89
2022-09-23T11:58:37.915Z,52.49
2022-09-23T12:03:55.685Z,53.23
2022-09-23T12:09:03.914Z,53.90
2022-09-23T12:14:25.919Z,54.48
2022-09-23T12:19:45.498Z,47.34
2022-09-23T12:25:10.418Z,50.58
2022-09-23T12:30:25.351Z,51.19
2022-09-23T12:35:40.089Z,55.62
2022-09-23T12:40:43.646Z,54.45
2022-09-23T12:45:45.564Z,52.98
2022-09-23T12:51:03.774Z,46.04
2022-09-23T12:56:23.739Z,46.20
2022-09-23T13:01:26.827Z,45.54
2022-09-23T13:06:39.192Z,48.41
2022-09-23T13:11:45.342Z,51.88
2022-09-23T13:16:48.409Z,54.69
2022-09-23T13:21:51.400Z,55.89
2022-09-23T13:26:55.664Z,55.80
2022-09-23T13:31:58.122Z,52.87
2022-09-23T13:37:22.808Z,54.07
2022-09-23T13:42:28.662Z,50.16
2022-09-23T13:47:31.321Z,48.67
2022-09-23T13:52:33.169Z,46.30
2022-09-23T13:57:35.082Z,43.85
2022-09-23T14:02:43.135Z,46.63
2022-09-23T14:07:45.089Z,45.04
2022-09-23T14:12:48.897Z,45.93
2022-09-23T14:17:54.582Z,52.10
2022-09-23T14:23:09.631Z,50.02
2022-09-23T14:28:21.091Z,50.58
2022-09-23T14:33:33.318Z,52.18
2022-09-23T14:38:50.812Z,52.84
2022-09-23T14:43:58.702Z,55.91
2022-09-23T14:49:12.260Z,59.58
2022-09-23T14:54:44.057Z,57.05
2022-09-23T15:00:09.386Z,55.36
2022-09-23T15:05:23.252Z,58.04
2022-09-23T15:10:31.895Z,57.70
2022-09-23T15:15:33.888Z,57.79
2022-09-23T15:20:36.143Z,63.03
2022-09-23T15:25:41.226Z,66.08
2022-09-23T15:30:42.906Z,68.70
2022-09-23T15:35:48.919Z,70.58
2022-09-23T15:40:50.691Z,71.16
2022-09-23T15:45:57.234Z,70.60
2022-09-23T15:51:04.018Z,70.05
2022-09-23T15:56:06.292Z,73.41
2022-09-23T16:01:15.687Z,74.42
2022-09-23T16:06:17.334Z,73.59
2022-09-23T16:11:23.577Z,73.46
2022-09-23T16:16:27.817Z,75.66
2022-09-23T16:21:29.606Z,70.86
2022-09-23T16:26:35.580Z,72.60
2022-09-23T16:31:38.752Z,72.12
2022-09-23T16:36:43.127Z,71.53
2022-09-23T16:41:44.766Z,75.68
2022-09-23T16:46:46.395Z,77.01
2022-09-23T16:51:48.190Z,79.29
2022-09-23T16:56:50.506Z,68.82
2022-09-23T17:02:10.825Z,76.70
2022-09-23T17:07:12.706Z,78.54
2022-09-23T17:12:32.355Z,78.64
2022-09-23T17:17:37.548Z,81.08
2022-09-23T17:22:39.146Z,82.09
2022-09-23T17:27:40.880Z,84.40
2022-09-23T17:32:42.572Z,84.65
2022-09-23T17:37:44.166Z,83.11
2022-09-23T17:42:45.774Z,85.65
2022-09-23T17:47:51.286Z,85.19
2022-09-23T17:52:52.886Z,84.89
2022-09-23T17:57:54.494Z,88.13
2022-09-23T18:02:56.132Z,88.28
2022-09-23T18:07:57.745Z,89.59
2022-09-23T18:12:59.372Z,90.28
2022-09-23T18:18:00.994Z,91.62
2022-09-23T18:23:02.620Z,91.31
2022-09-23T18:28:04.283Z,92.91
2022-09-23T18:33:05.895Z,92.91
2022-09-23T18:38:07.767Z,93.73
2022-09-23T18:43:09.380Z,94.75
2022-09-23T18:48:29.655Z,95.74
2022-09-23T18:53:32.160Z,95.32
2022-09-23T18:58:33.847Z,95.76
2022-09-23T19:03:36.593Z,95.77
2022-09-23T19:08:38.638Z,95.73
2022-09-23T19:13:40.542Z,96.16
2022-09-23T19:18:44.406Z,97.07
2022-09-23T19:23:49.294Z,98.46
2022-09-23T19:28:53.388Z,96.79
2022-09-23T19:34:00.776Z,98.64
2022-09-23T19:39:08.534Z,97.91
2022-09-23T19:44:10.285Z,100.00
2022-09-23T19:49:12.169Z,99.33
2022-09-23T19:54:20.562Z,99.31
2022-09-23T19:59:22.437Z,99.53
2022-09-23T20:04:24.157Z,100.00
2022-09-23T20:09:29.014Z,100.00
2022-09-23T20:14:31.400Z,100.00
2022-09-23T20:19:33.061Z,100.00
2022-09-23T20:24:34.674Z,100.00
2022-09-23T20:29:37.419Z,100.00
2022-09-23T20:34:40.174Z,100.00
2022-09-23T20:39:41.785Z,100.00
2022-09-23T20:44:45.006Z,100.00
2022-09-23T20:49:46.654Z,100.00
2022-09-23T20:54:50.423Z,100.00
2022-09-23T20:59:52.034Z,100.00
2022-09-23T21:04:53.622Z,100.00
2022-09-23T21:09:55.208Z,100.00
2022-09-23T21:14:56.805Z,100.00
2022-09-23T21:20:01.429Z,100.00
2022-09-23T21:25:29.888Z,100.00
2022-09-23T21:30:25.637Z,100.00
2022-09-23T21:35:27.382Z,100.00
2022-09-23T21:40:47.492Z,100.00
2022-09-23T21:45:49.752Z,100.00
2022-09-23T21:50:56.767Z,100.00
2022-09-23T21:56:07.224Z,100.00
2022-09-23T22:01:15.571Z,100.00
2022-09-23T22:06:21.623Z,100.00
2022-09-23T22:11:43.112Z,100.00
2022-09-23T22:16:45.100Z,100.00
2022-09-23T22:21:47.140Z,100.00
2022-09-23T22:26:48.782Z,100.00
2022-09-23T22:32:08.955Z,100.00
2022-09-23T22:37:10.591Z,100.00
2022-09-23T22:42:16.150Z,100.00
2022-09-23T22:47:19.946Z,100.00
2022-09-23T22:52:24.569Z,100.00
2022-09-23T22:57:26.605Z,100.00
2022-09-23T23:02:28.291Z,100.00
2022-09-23T23:07:29.884Z,100.00
2022-09-23T23:12:33.498Z,100.00
2022-09-23T23:17:35.121Z,100.00
2022-09-23T23:22:36.717Z,100.00
2022-09-23T23:27:38.382Z,100.00
2022-09-23T23:32:39.995Z,100.00
2022-09-23T23:37:42.683Z,100.00
2022-09-23T23:42:44.345Z,100.00
2022-09-23T23:47:46.423Z,100.00
2022-09-23T23:52:48.073Z,100.00
2022-09-23T23:57:51.616Z,100.00
